MFDO2: Hudson Lake

Data processed at Sat Oct 24 2020 23:55


All information presented herein is the property of the government of the United States of America and may be revised or deleted at any time without prior notice.
Dissemination of this information without the expressed written consent of the Public Affairs Office, Tulsa District U.S. Army Corps of Engineers is strictly prohibited.
These data are gathered electronically and, as presented, have not undergone any form of quality control. These data are not guaranteed to be valid or correct.
Go to home page.
Go to station list.
Go to home page.

Upstream stations:

Downstream station:
Previous Day
Next Day
Current Day
    
SHEF ID:       MFDO2     Lake Hudson
STATION TYPE:  RESERVOIR
Flood Pool:  Bottom =   619.00, Top =   636.00

               PRECIP ELEVATION   STORAGE   TW-ELEV    INFLOW   RELEASE  AIR-TEMP  WIND-DIRWIND-SPEED REL-HUMID SOLAR-RAD   VOLTAGE  BAT-LOAD
                   in        ft     ac-ft        ft       cfs       cfs         F       deg       mph         %      W/m2      volt      volt
              Ccp-Rev   Ccp-Rev   Ccp-Rev   Ccp-Rev  Rev-Regi  Rev-Regi   Ccp-Rev   Ccp-Rev   Ccp-Rev   Ccp-Rev   Ccp-Rev   Ccp-Rev   Ccp-Rev
(US/Central)
10/24 00:00      0.00    619.87    209856    564.95      5156     16200     46.76      8.00      9.00     74.36      0.00     11.71     12.57
10/24 01:00      0.00    620.12    212667    562.96      5056         0     46.60      2.50      6.50     74.38      0.00     12.98     12.65
10/24 02:00      0.00    620.09    212325    562.22      5119         0     46.36      0.10      6.80     74.14      0.00     12.98     12.57
10/24 03:00      0.00    619.98    211078    561.74      4301         0     46.04    358.60      6.90     73.76      0.00     11.74     12.57
10/24 04:00      0.00    619.95    210744    561.38       284         0     46.06     13.70      8.30     74.74      0.00     13.00     12.57
10/24 05:00      0.00    620.00    211300    561.09       284         0     45.36     13.10      8.40     75.21      0.00     13.00     12.57
10/24 06:00      0.00    619.97    210967    560.87       750         0     44.55      0.50      5.80     75.97      0.00     12.99     12.57
10/24 07:00      0.00    619.87    209856    560.67      2133         0     44.42    353.10      5.30     76.54      0.00     12.99     12.57
10/24 08:00      0.00    619.91    210300    560.51      1990         0     44.60     19.70      7.70     77.87      0.00     13.00     12.57
10/24 09:00      0.00    620.04    211756    560.38      2396         0     44.47     14.00      6.90     77.43      6.70     13.00     12.57
10/24 10:00      0.00    620.03    211642    560.25      2396         0     44.51     17.00      6.20     76.32     41.20     13.00     12.57
10/24 11:00      0.00    620.07    212097    560.16      2464         0     45.21      4.40      3.80     74.39     79.20     13.00     12.57
10/24 12:00      0.00    620.06    211983    560.07       939         0     45.90     20.50      3.40     73.40     99.60     12.99     12.57
10/24 13:00      0.00    620.11    212553    559.98       939         0     46.76      6.30      2.50     72.54    130.80     13.00     12.57
10/24 14:00      0.00    620.09    212325    559.90       677         0     47.68    359.80      1.50     70.90    171.10     12.99     12.57
10/24 15:00      0.00    620.07    212097    559.84       750         0     48.51    315.00      1.70     70.46    105.70     13.00     12.57
10/24 16:00      0.00    620.08    212211    559.78       289         0     48.60     34.80      1.10     71.69     54.00     13.00     12.57
10/24 17:00      0.00    620.10    212439    559.72       289         0     48.70    112.80      1.30     72.03     10.70     13.00     12.57
10/24 18:00      0.00    620.09    212325    559.67       289         0     49.32    325.50      2.80     73.37      6.20     13.00     12.57
10/24 19:00      0.00    620.07    212097    559.63       783         0     48.92    333.90      2.40     74.10      0.00     13.00     12.65
10/24 20:00      0.00    619.95    210744    564.13      1033     15120     49.03    321.20      3.20     77.14      0.00     13.00     12.65
10/24 21:00      0.00    619.87    209856    565.24      1599     16200     49.24    311.00      3.50     80.52      0.00     12.99     12.57
10/24 22:00      0.00    619.77    208745    566.14      1607     16200     49.12     54.70      5.70     84.80      0.00     13.00     12.57
10/24 23:00      0.00    619.72    208189    563.91      ----      ----     48.65     42.70      5.70     87.68      0.00     12.99     12.57